Terminal Aerodrome Forecast
Issued by NWS

Home | Current Version | Previous Version | Text Only | Print | Product List | Glossary On
Versions: 1 2 3 4 5 6 7 8 9 10 11 12 13 14
000
FTAK31 PANC 232101 AAA
TAFATK
TAF AMD
PATK 232101Z 2321/2418 VRB02KT P6SM -RA OVC035
      TEMPO 2321/2324 4SM -RA BR BKN025
     FM240900 VRB05KT 6SM -RA BR OVC025=

USA.gov is the U.S. government's official web portal to all federal, state and local government web resources and services.